createdAt,value
2023-08-17T00:01:03.002Z,1.70
2023-08-17T00:06:08.428Z,1.55
2023-08-17T00:11:12.257Z,1.60
2023-08-17T00:16:19.016Z,1.90
2023-08-17T00:21:24.562Z,1.60
2023-08-17T00:26:28.350Z,1.75
2023-08-17T00:31:32.179Z,1.65
2023-08-17T00:36:37.623Z,1.90
2023-08-17T00:41:41.337Z,1.58
2023-08-17T00:46:45.225Z,1.90
2023-08-17T00:51:50.964Z,2.03
2023-08-17T00:56:55.412Z,1.77
2023-08-17T01:01:59.201Z,1.52
2023-08-17T01:07:04.634Z,1.90
2023-08-17T01:12:15.445Z,1.80
2023-08-17T01:17:25.368Z,1.38
2023-08-17T01:22:32.253Z,1.67
2023-08-17T01:27:41.241Z,1.80
2023-08-17T01:32:50.457Z,1.92
2023-08-17T01:37:57.376Z,1.90
2023-08-17T01:43:03.438Z,1.70
2023-08-17T01:48:07.773Z,1.88
2023-08-17T01:58:16.291Z,2.05
2023-08-17T02:03:20.040Z,2.20
2023-08-17T02:08:23.860Z,2.23
2023-08-17T02:13:29.257Z,2.25
2023-08-17T02:18:33.102Z,2.05
2023-08-17T02:23:36.944Z,2.50
2023-08-17T02:28:42.375Z,2.30
2023-08-17T02:33:46.096Z,2.15
2023-08-17T02:38:49.818Z,2.03
2023-08-17T02:43:55.188Z,2.13
2023-08-17T02:48:58.952Z,2.10
2023-08-17T02:54:03.471Z,2.40
2023-08-17T03:04:11.903Z,2.13
2023-08-17T03:09:15.630Z,2.10
2023-08-17T03:14:21.036Z,1.93
2023-08-17T03:19:24.781Z,2.10
2023-08-17T03:24:28.760Z,1.98
2023-08-17T03:29:34.205Z,2.13
2023-08-17T03:34:38.615Z,2.30
2023-08-17T03:39:42.421Z,2.20
2023-08-17T03:44:49.260Z,2.10
2023-08-17T03:49:53.739Z,2.08
2023-08-17T03:54:57.491Z,2.00
2023-08-17T04:00:02.905Z,1.80
2023-08-17T04:05:07.680Z,1.75
2023-08-17T04:15:16.556Z,1.95
2023-08-17T04:20:20.386Z,1.85
2023-08-17T04:25:24.133Z,1.92
2023-08-17T04:30:29.582Z,1.90
2023-08-17T04:35:34.062Z,1.83
2023-08-17T04:40:38.566Z,2.10
2023-08-17T04:45:44.074Z,1.77
2023-08-17T04:50:47.966Z,1.80
2023-08-17T04:55:51.793Z,2.03
2023-08-17T05:00:57.179Z,1.90
2023-08-17T05:06:00.930Z,1.80
2023-08-17T05:11:04.723Z,1.80
2023-08-17T05:16:10.119Z,1.80
2023-08-17T05:21:13.901Z,1.60
2023-08-17T05:26:17.640Z,1.67
2023-08-17T05:31:23.076Z,1.70
2023-08-17T05:36:26.872Z,1.73
2023-08-17T05:41:30.618Z,1.77
2023-08-17T05:46:36.107Z,1.75
2023-08-17T05:51:39.897Z,1.80
2023-08-17T05:56:43.634Z,1.75
2023-08-17T06:01:49.021Z,1.73
2023-08-17T06:06:52.817Z,1.85
2023-08-17T06:11:56.562Z,1.63
2023-08-17T06:17:01.993Z,1.63
2023-08-17T06:22:05.815Z,1.80
2023-08-17T06:27:09.522Z,1.70
2023-08-17T06:32:14.942Z,1.90
2023-08-17T06:37:18.648Z,1.50
2023-08-17T06:42:22.407Z,1.90
2023-08-17T06:47:28.269Z,1.60
2023-08-17T06:52:32.282Z,1.48
2023-08-17T06:57:36.715Z,1.60
2023-08-17T07:02:52.815Z,1.63
2023-08-17T07:07:58.106Z,1.40
2023-08-17T07:13:01.908Z,1.45
2023-08-17T07:18:07.787Z,1.90
2023-08-17T07:23:11.566Z,1.50
2023-08-17T07:28:15.253Z,1.60
2023-08-17T07:33:20.653Z,1.50
2023-08-17T07:38:24.476Z,1.67
2023-08-17T07:43:28.188Z,1.70
2023-08-17T07:48:33.601Z,1.60
2023-08-17T07:53:37.389Z,1.70
2023-08-17T07:58:41.090Z,1.98
2023-08-17T08:03:46.455Z,1.77
2023-08-17T08:08:50.209Z,1.90
2023-08-17T08:13:53.935Z,1.70
2023-08-17T08:18:59.761Z,1.65
2023-08-17T08:24:04.017Z,1.63
2023-08-17T08:29:07.746Z,2.13
2023-08-17T08:34:13.100Z,1.80
2023-08-17T08:39:16.886Z,2.10
2023-08-17T08:44:21.045Z,1.80
2023-08-17T08:49:27.306Z,1.92
2023-08-17T08:54:37.949Z,1.83
2023-08-17T08:59:43.092Z,1.85
2023-08-17T09:04:48.572Z,2.00
2023-08-17T09:09:53.023Z,1.50
2023-08-17T09:14:57.306Z,2.00
2023-08-17T09:20:03.148Z,1.60
2023-08-17T09:25:08.108Z,1.63
2023-08-17T09:30:19.413Z,1.60
2023-08-17T09:35:27.169Z,1.85
2023-08-17T09:40:31.819Z,1.80
2023-08-17T09:45:35.633Z,1.77
2023-08-17T09:50:41.001Z,1.70
2023-08-17T10:00:51.070Z,1.80
2023-08-17T10:06:05.249Z,1.80
2023-08-17T10:11:09.258Z,1.70
2023-08-17T10:16:30.031Z,1.75
2023-08-17T10:21:45.739Z,1.77
2023-08-17T10:31:59.108Z,1.90
2023-08-17T10:37:05.332Z,1.60
2023-08-17T10:42:09.144Z,1.60
2023-08-17T10:47:23.308Z,1.80
2023-08-17T10:52:33.092Z,1.95
2023-08-17T10:57:38.771Z,1.70
2023-08-17T11:02:42.763Z,1.80
2023-08-17T11:07:48.125Z,1.73
2023-08-17T11:12:54.767Z,1.90
2023-08-17T11:17:58.518Z,1.80
2023-08-17T11:23:04.324Z,1.65
2023-08-17T11:28:09.832Z,1.77
2023-08-17T11:38:18.369Z,1.70
2023-08-17T11:43:23.522Z,1.83
2023-08-17T11:48:27.418Z,1.88
2023-08-17T11:53:38.269Z,1.80
2023-08-17T11:58:47.247Z,1.95
2023-08-17T12:03:51.341Z,1.70
2023-08-17T12:08:56.876Z,2.28
2023-08-17T12:14:01.361Z,1.98
2023-08-17T12:19:07.252Z,2.03
2023-08-17T12:24:13.440Z,2.22
2023-08-17T12:29:17.156Z,1.90
2023-08-17T12:34:20.833Z,1.80
2023-08-17T12:39:26.256Z,1.77
2023-08-17T12:44:30.052Z,1.90
2023-08-17T12:49:39.139Z,1.75
2023-08-17T12:54:45.032Z,1.92
2023-08-17T12:59:48.824Z,2.00
2023-08-17T13:04:52.531Z,2.00
2023-08-17T13:09:58.896Z,2.00
2023-08-17T13:15:02.625Z,1.70
2023-08-17T13:20:07.380Z,1.67
2023-08-17T13:25:12.922Z,1.90
2023-08-17T13:30:16.844Z,1.90
2023-08-17T13:35:21.382Z,2.03
2023-08-17T13:40:27.097Z,2.05
2023-08-17T13:45:30.807Z,1.85
2023-08-17T13:50:34.607Z,1.95
2023-08-17T13:55:40.223Z,1.65
2023-08-17T14:05:46.933Z,1.80
2023-08-17T14:10:52.698Z,1.60
2023-08-17T14:15:59.221Z,1.80
2023-08-17T14:21:03.025Z,1.30
2023-08-17T14:26:08.462Z,1.67
2023-08-17T14:31:12.418Z,1.75
2023-08-17T14:36:19.729Z,1.70
2023-08-17T14:41:25.565Z,1.80
2023-08-17T14:46:30.178Z,2.30
2023-08-17T14:51:39.517Z,2.90
2023-08-17T14:56:44.933Z,1.83
2023-08-17T15:06:51.646Z,1.83
2023-08-17T15:11:56.982Z,1.85
2023-08-17T15:17:01.900Z,2.10
2023-08-17T15:22:05.726Z,1.80
2023-08-17T15:27:11.122Z,1.75
2023-08-17T15:37:17.849Z,1.92
2023-08-17T15:42:23.335Z,1.98
2023-08-17T15:47:27.439Z,2.28
2023-08-17T15:52:31.419Z,2.10
2023-08-17T15:57:36.799Z,2.30
2023-08-17T16:02:40.656Z,2.10
2023-08-17T16:07:44.530Z,2.30
2023-08-17T16:12:50.636Z,2.05
2023-08-17T16:17:54.489Z,1.95
2023-08-17T16:22:58.386Z,2.10
2023-08-17T16:28:03.789Z,2.03
2023-08-17T16:33:07.628Z,1.58
2023-08-17T16:38:11.621Z,1.37
2023-08-17T16:43:17.027Z,1.70
2023-08-17T16:48:24.619Z,1.60
2023-08-17T16:53:28.705Z,1.35
2023-08-17T16:58:34.057Z,1.70
2023-08-17T17:03:37.823Z,1.85
2023-08-17T17:08:41.664Z,1.70
2023-08-17T17:13:47.170Z,1.47
2023-08-17T17:18:50.905Z,1.45
2023-08-17T17:23:54.695Z,1.20
2023-08-17T17:29:00.104Z,1.13
2023-08-17T17:34:03.882Z,1.30
2023-08-17T17:39:07.790Z,1.00
2023-08-17T17:44:13.969Z,1.00
2023-08-17T17:49:17.702Z,1.23
2023-08-17T17:54:21.430Z,1.00
2023-08-17T17:59:26.859Z,0.97
2023-08-17T18:04:30.606Z,0.90
2023-08-17T18:09:37.424Z,1.00
2023-08-17T18:14:42.852Z,0.90
2023-08-17T18:19:46.565Z,0.77
2023-08-17T18:24:50.344Z,0.90
2023-08-17T18:29:55.706Z,1.00
2023-08-17T18:34:59.519Z,0.50
2023-08-17T18:40:03.447Z,0.80
2023-08-17T18:45:09.972Z,0.90
2023-08-17T18:50:13.755Z,0.70
2023-08-17T18:55:17.461Z,0.75
2023-08-17T19:00:22.993Z,0.70
2023-08-17T19:05:26.833Z,0.93
2023-08-17T19:10:30.610Z,0.70
2023-08-17T19:15:36.018Z,0.77
2023-08-17T19:20:39.867Z,0.93
2023-08-17T19:25:43.691Z,0.80
2023-08-17T19:30:49.073Z,0.85
2023-08-17T19:35:53.707Z,0.85
2023-08-17T19:40:57.403Z,0.98
2023-08-17T19:46:02.808Z,1.40
2023-08-17T19:51:06.632Z,1.30
2023-08-17T19:56:11.056Z,1.60
2023-08-17T20:01:16.491Z,1.70
2023-08-17T20:06:20.226Z,1.80
2023-08-17T20:11:23.979Z,2.15
2023-08-17T20:16:29.386Z,2.10
2023-08-17T20:21:33.157Z,2.38
2023-08-17T20:26:36.970Z,2.40
2023-08-17T20:31:42.443Z,1.80
2023-08-17T20:36:46.292Z,1.70
2023-08-17T20:41:50.026Z,2.00
2023-08-17T20:46:57.643Z,1.88
2023-08-17T20:52:02.167Z,1.77
2023-08-17T20:57:06.258Z,2.00
2023-08-17T21:02:11.686Z,1.98
2023-08-17T21:07:16.630Z,2.00
2023-08-17T21:12:20.348Z,2.40
2023-08-17T21:17:27.485Z,2.70
2023-08-17T21:22:31.501Z,2.40
2023-08-17T21:27:35.298Z,2.30
2023-08-17T21:32:40.884Z,2.30
2023-08-17T21:37:46.641Z,2.20
2023-08-17T21:42:50.377Z,2.10
2023-08-17T21:47:55.833Z,2.00
2023-08-17T21:52:59.581Z,1.90
2023-08-17T21:58:03.320Z,2.42
2023-08-17T22:03:08.892Z,2.40
2023-08-17T22:08:12.846Z,2.33
2023-08-17T22:18:21.305Z,3.22
2023-08-17T22:23:25.097Z,3.28
2023-08-17T22:28:28.821Z,3.00
2023-08-17T22:33:35.860Z,2.90
2023-08-17T22:38:39.617Z,3.70
2023-08-17T22:43:43.330Z,3.90
2023-08-17T22:48:48.786Z,4.05
2023-08-17T22:53:52.638Z,4.45
2023-08-17T23:04:01.933Z,4.63
2023-08-17T23:09:06.019Z,4.07
2023-08-17T23:14:09.745Z,4.93
2023-08-17T23:19:15.081Z,5.10
2023-08-17T23:24:19.747Z,5.20
2023-08-17T23:29:24.601Z,5.10
2023-08-17T23:34:29.958Z,4.63
2023-08-17T23:39:33.636Z,4.25
2023-08-17T23:44:37.296Z,3.60
2023-08-17T23:49:42.650Z,3.83
2023-08-17T23:54:46.287Z,3.70
2023-08-17T23:59:49.967Z,3.65
